Time;durP1;ratioP1;P1;durP2;ratioP2;P2;SDS_P1;SDS_P2;PMS_P1;PMS_P2;Temp;Humidity;BMP_temperature;BMP_pressure;BME280_temperature;BME280_humidity;BME280_pressure;Samples;Min_cycle;Max_cycle;Signal;HPM_P1;HPM_P2
2023/09/20 00:01:49;;;;;;;;;;;28.80;51.40;;;;;;5084033;28;19936;-66
2023/09/20 00:04:15;;;;;;;;;;;28.90;51.40;;;;;;5083353;28;20330;-71
2023/09/20 00:06:42;;;;;;;;;;;28.90;51.30;;;;;;5089424;28;19911;-69
2023/09/20 00:09:09;;;;;;;;;;;29.00;50.60;;;;;;5085046;28;19919;-67
2023/09/20 00:11:35;;;;;;;;;;;29.10;51.00;;;;;;5092543;28;20054;-70
2023/09/20 00:14:02;;;;;;;;;;;29.20;50.60;;;;;;5095013;28;19912;-68
2023/09/20 00:16:31;;;;;;;;;;;29.20;50.50;;;;;;5094812;28;19908;-67
2023/09/20 00:18:58;;;;;;;;;;;29.40;50.60;;;;;;5090396;28;19999;-69
2023/09/20 00:21:25;;;;;;;;;;;29.40;50.70;;;;;;5089012;28;20061;-73
2023/09/20 00:23:52;;;;;;;;;;;29.50;50.50;;;;;;5083728;28;19908;-71
2023/09/20 00:26:19;;;;;;;;;;;29.70;50.50;;;;;;5095031;28;19999;-70
2023/09/20 00:28:49;;;;;;;;;;;29.70;50.20;;;;;;5093449;28;19994;-70
2023/09/20 00:31:16;;;;;;;;;;;29.80;50.60;;;;;;5084179;28;20268;-71
2023/09/20 00:33:45;;;;;;;;;;;29.90;50.80;;;;;;5074878;28;19921;-71
2023/09/20 00:36:19;;;;;;;;;;;30.00;50.00;;;;;;5079677;28;19909;-69
2023/09/20 00:38:47;;;;;;;;;;;29.90;49.70;;;;;;5093391;28;20300;-72
2023/09/20 00:41:14;;;;;;;;;;;30.00;49.80;;;;;;5087784;28;21682;-71
2023/09/20 00:43:41;;;;;;;;;;;30.00;49.80;;;;;;5079206;28;19912;-71
2023/09/20 00:46:09;;;;;;;;;;;30.10;49.90;;;;;;5094382;28;19908;-69
2023/09/20 00:48:38;;;;;;;;;;;30.20;49.70;;;;;;5094474;28;19952;-67
2023/09/20 00:51:09;;;;;;;;;;;30.30;49.80;;;;;;5094559;28;19964;-67
2023/09/20 00:53:37;;;;;;;;;;;30.40;49.80;;;;;;5094235;28;20364;-71
2023/09/20 00:56:05;;;;;;;;;;;30.50;49.30;;;;;;5094496;28;20298;-71
2023/09/20 00:58:34;;;;;;;;;;;30.70;49.30;;;;;;5093672;28;20023;-69
2023/09/20 01:01:02;;;;;;;;;;;30.80;49.10;;;;;;5085844;28;20621;-69
2023/09/20 01:03:29;;;;;;;;;;;30.80;48.70;;;;;;5085652;28;19908;-68
2023/09/20 01:05:55;;;;;;;;;;;30.90;48.70;;;;;;5093569;28;19943;-69
2023/09/20 01:08:22;;;;;;;;;;;31.00;48.70;;;;;;5080203;28;19917;-69
2023/09/20 01:10:49;;;;;;;;;;;31.00;49.00;;;;;;5087867;28;20323;-72
2023/09/20 01:13:18;;;;;;;;;;;31.10;49.10;;;;;;5079653;28;20400;-66
2023/09/20 01:15:46;;;;;;;;;;;31.20;49.20;;;;;;5094649;28;20357;-70
2023/09/20 01:18:13;;;;;;;;;;;31.30;48.50;;;;;;5092462;28;19920;-68
2023/09/20 01:20:40;;;;;;;;;;;31.40;48.40;;;;;;5089938;28;20412;-67
2023/09/20 01:23:07;;;;;;;;;;;31.70;48.60;;;;;;5093830;28;19908;-70
2023/09/20 01:25:41;;;;;;;;;;;31.80;48.20;;;;;;5094706;28;19912;-67
2023/09/20 01:28:08;;;;;;;;;;;32.00;48.10;;;;;;5094344;28;19950;-67
2023/09/20 01:30:39;;;;;;;;;;;32.10;47.70;;;;;;5093881;28;20002;-69
2023/09/20 01:33:09;;;;;;;;;;;32.10;47.50;;;;;;5093907;28;19912;-68
2023/09/20 01:35:37;;;;;;;;;;;32.20;47.60;;;;;;5094391;28;19908;-68
2023/09/20 01:38:07;;;;;;;;;;;32.30;47.50;;;;;;5094308;28;19979;-68
2023/09/20 01:40:34;;;;;;;;;;;32.40;47.10;;;;;;5094410;28;19908;-69
2023/09/20 01:43:03;;;;;;;;;;;32.50;47.30;;;;;;5092815;28;19908;-68
2023/09/20 01:45:30;;;;;;;;;;;32.80;46.90;;;;;;5092172;28;19915;-69
2023/09/20 01:48:06;;;;;;;;;;;32.80;47.50;;;;;;5091935;28;20011;-70
2023/09/20 01:50:33;;;;;;;;;;;32.90;46.80;;;;;;5092198;28;19908;-68
2023/09/20 01:53:01;;;;;;;;;;;33.00;46.20;;;;;;5091899;28;19918;-70
2023/09/20 01:55:28;;;;;;;;;;;33.00;46.00;;;;;;5092096;28;19912;-68
2023/09/20 01:57:55;;;;;;;;;;;33.10;45.70;;;;;;5093131;28;20000;-69
2023/09/20 02:00:33;;;;;;;;;;;33.20;46.00;;;;;;5093816;28;20007;-68
2023/09/20 02:03:16;;;;;;;;;;;33.20;46.00;;;;;;5093966;28;19912;-69
2023/09/20 02:05:50;;;;;;;;;;;33.30;45.80;;;;;;5093888;28;19908;-68
2023/09/20 02:08:17;;;;;;;;;;;33.40;47.10;;;;;;5093749;28;20006;-69
2023/09/20 02:10:44;;;;;;;;;;;33.70;46.70;;;;;;5093478;28;19930;-68
2023/09/20 02:13:11;;;;;;;;;;;33.80;46.10;;;;;;5093683;28;19927;-71
2023/09/20 02:15:41;;;;;;;;;;;33.60;45.80;;;;;;5093741;28;20368;-69
2023/09/20 02:18:09;;;;;;;;;;;33.70;46.50;;;;;;5093649;28;20351;-72
2023/09/20 02:20:36;;;;;;;;;;;33.80;45.60;;;;;;5093462;28;19987;-70
2023/09/20 02:23:04;;;;;;;;;;;33.80;46.00;;;;;;5093352;28;20002;-69
2023/09/20 02:25:31;;;;;;;;;;;34.00;45.60;;;;;;5093564;28;19916;-69
2023/09/20 02:27:58;;;;;;;;;;;34.00;45.20;;;;;;5093568;28;20323;-68
2023/09/20 02:30:28;;;;;;;;;;;34.10;45.80;;;;;;5093441;28;19965;-68
2023/09/20 02:32:57;;;;;;;;;;;34.40;45.60;;;;;;5092747;28;19909;-69
2023/09/20 02:35:25;;;;;;;;;;;34.40;45.80;;;;;;5092995;28;19912;-67
2023/09/20 02:37:52;;;;;;;;;;;34.90;45.40;;;;;;5093241;28;19919;-69
2023/09/20 02:40:19;;;;;;;;;;;35.20;45.20;;;;;;5093016;28;19919;-69
2023/09/20 02:42:47;;;;;;;;;;;35.90;45.00;;;;;;5093176;28;19948;-69
2023/09/20 02:45:14;;;;;;;;;;;36.60;44.50;;;;;;5093270;28;19908;-68
2023/09/20 02:47:41;;;;;;;;;;;37.00;44.00;;;;;;5092983;28;19920;-69
2023/09/20 02:50:13;;;;;;;;;;;38.00;42.90;;;;;;5093119;28;20367;-70
2023/09/20 02:52:40;;;;;;;;;;;37.80;42.50;;;;;;5093239;28;19912;-67
2023/09/20 02:55:17;;;;;;;;;;;38.40;43.20;;;;;;5093255;28;19908;-70
2023/09/20 02:57:45;;;;;;;;;;;38.90;42.90;;;;;;5092724;28;19908;-68
2023/09/20 03:00:21;;;;;;;;;;;39.70;42.30;;;;;;5092831;28;19912;-70
2023/09/20 03:02:49;;;;;;;;;;;39.90;42.00;;;;;;5092893;28;20412;-67
2023/09/20 03:05:17;;;;;;;;;;;40.30;42.30;;;;;;5092789;28;19909;-68
2023/09/20 03:07:47;;;;;;;;;;;40.70;41.40;;;;;;5091451;28;19961;-68
2023/09/20 03:10:15;;;;;;;;;;;40.90;41.20;;;;;;5092620;28;20373;-70
2023/09/20 03:12:44;;;;;;;;;;;40.50;41.20;;;;;;5092592;28;19941;-70
2023/09/20 03:15:17;;;;;;;;;;;40.40;41.60;;;;;;5092545;28;19908;-67
2023/09/20 03:17:45;;;;;;;;;;;40.90;40.60;;;;;;5092745;28;19915;-69
2023/09/20 03:20:32;;;;;;;;;;;41.50;40.80;;;;;;5092663;28;20010;-70
2023/09/20 03:22:59;;;;;;;;;;;41.40;40.50;;;;;;5092504;28;19961;-71
2023/09/20 03:25:34;;;;;;;;;;;41.80;40.20;;;;;;5092774;28;19969;-69
2023/09/20 03:28:01;;;;;;;;;;;41.70;39.60;;;;;;5092872;28;19962;-68
2023/09/20 03:30:28;;;;;;;;;;;41.20;39.50;;;;;;5092577;28;19908;-68
2023/09/20 03:32:55;;;;;;;;;;;41.00;40.10;;;;;;5092577;28;19908;-69
2023/09/20 03:35:22;;;;;;;;;;;41.20;40.10;;;;;;5092388;28;19909;-68
2023/09/20 03:37:48;;;;;;;;;;;41.80;40.00;;;;;;5092699;28;19916;-68
2023/09/20 03:40:19;;;;;;;;;;;41.30;39.80;;;;;;5092718;28;19955;-68
2023/09/20 03:42:47;;;;;;;;;;;41.50;39.70;;;;;;5092649;28;19915;-69
2023/09/20 03:45:15;;;;;;;;;;;41.70;39.60;;;;;;5096339;28;20357;-67
2023/09/20 03:47:45;;;;;;;;;;;42.30;39.70;;;;;;5096587;28;19961;-68
2023/09/20 03:50:12;;;;;;;;;;;43.10;39.20;;;;;;5096777;28;19908;-68
2023/09/20 03:52:39;;;;;;;;;;;43.20;39.10;;;;;;5096556;28;20402;-67
2023/09/20 03:55:07;;;;;;;;;;;42.80;39.50;;;;;;5096643;28;19914;-67
2023/09/20 03:57:34;;;;;;;;;;;43.00;39.40;;;;;;5096377;28;19992;-68
2023/09/20 04:00:03;;;;;;;;;;;42.80;39.00;;;;;;5096247;28;20011;-68
2023/09/20 04:02:30;;;;;;;;;;;43.00;39.50;;;;;;5096412;28;19912;-67
2023/09/20 04:05:00;;;;;;;;;;;42.90;39.40;;;;;;5094739;28;19915;-67
2023/09/20 04:07:26;;;;;;;;;;;42.40;39.30;;;;;;5096522;28;19915;-68
2023/09/20 04:09:53;;;;;;;;;;;42.10;39.40;;;;;;5095923;28;19908;-68
2023/09/20 04:12:22;;;;;;;;;;;42.50;39.80;;;;;;5096076;28;19947;-68
2023/09/20 04:14:53;;;;;;;;;;;42.50;39.20;;;;;;5096120;28;19953;-68
2023/09/20 04:17:21;;;;;;;;;;;42.40;39.10;;;;;;5095982;28;19912;-69
2023/09/20 04:19:48;;;;;;;;;;;42.40;39.20;;;;;;5095564;28;19916;-68
2023/09/20 04:22:14;;;;;;;;;;;42.80;39.00;;;;;;5095979;28;20330;-68
2023/09/20 04:24:41;;;;;;;;;;;42.10;39.40;;;;;;5094762;28;19947;-67
2023/09/20 04:27:08;;;;;;;;;;;41.80;39.70;;;;;;5080189;28;19922;-66
2023/09/20 04:29:36;;;;;;;;;;;41.70;39.30;;;;;;5088732;28;19935;-69
2023/09/20 04:32:03;;;;;;;;;;;41.90;40.00;;;;;;5090953;28;19925;-71
2023/09/20 04:34:30;;;;;;;;;;;42.40;39.30;;;;;;5092385;28;19958;-69
2023/09/20 04:36:57;;;;;;;;;;;43.10;38.80;;;;;;5094334;28;20368;-72
2023/09/20 04:39:24;;;;;;;;;;;43.20;38.90;;;;;;5083864;28;19966;-68
2023/09/20 04:41:53;;;;;;;;;;;43.00;39.20;;;;;;5093122;28;20322;-71
2023/09/20 04:44:20;;;;;;;;;;;43.50;38.70;;;;;;5094681;28;19946;-68
2023/09/20 04:46:47;;;;;;;;;;;43.30;38.70;;;;;;5094522;28;19934;-68
2023/09/20 04:49:14;;;;;;;;;;;43.50;38.90;;;;;;5089642;28;19955;-67
2023/09/20 04:51:44;;;;;;;;;;;43.30;38.70;;;;;;5094565;28;19913;-72
2023/09/20 04:54:11;;;;;;;;;;;43.10;38.90;;;;;;5093797;28;19908;-68
2023/09/20 04:56:37;;;;;;;;;;;43.00;39.10;;;;;;5093556;28;19916;-71
2023/09/20 04:59:04;;;;;;;;;;;43.40;39.00;;;;;;5094225;28;20445;-69
2023/09/20 05:01:31;;;;;;;;;;;43.70;39.10;;;;;;5094718;28;19961;-69
2023/09/20 05:03:58;;;;;;;;;;;43.30;38.60;;;;;;5094567;28;19950;-68
2023/09/20 05:06:24;;;;;;;;;;;43.10;38.90;;;;;;5080214;28;19912;-69
2023/09/20 05:08:51;;;;;;;;;;;42.70;38.70;;;;;;5074054;28;19909;-68
2023/09/20 05:11:18;;;;;;;;;;;42.80;39.40;;;;;;5074282;28;19916;-70
2023/09/20 05:13:45;;;;;;;;;;;43.20;39.20;;;;;;5074319;28;20441;-68
2023/09/20 05:16:12;;;;;;;;;;;43.90;38.70;;;;;;5073856;28;19909;-69
2023/09/20 05:18:40;;;;;;;;;;;44.10;39.50;;;;;;5073812;28;19920;-67
2023/09/20 05:21:09;;;;;;;;;;;44.90;38.70;;;;;;5079244;28;20314;-75
2023/09/20 05:23:36;;;;;;;;;;;45.20;38.80;;;;;;5092606;28;19915;-71
2023/09/20 05:26:03;;;;;;;;;;;45.20;38.60;;;;;;5082966;28;20500;-73
2023/09/20 05:28:30;;;;;;;;;;;44.70;38.50;;;;;;5082794;28;19923;-69
2023/09/20 05:30:57;;;;;;;;;;;44.00;38.70;;;;;;5089949;28;19912;-69
2023/09/20 05:33:24;;;;;;;;;;;43.20;39.00;;;;;;5092719;28;19923;-69
2023/09/20 05:35:50;;;;;;;;;;;43.70;38.60;;;;;;5091680;28;20337;-69
2023/09/20 05:38:17;;;;;;;;;;;44.10;38.40;;;;;;5090871;28;19923;-69
2023/09/20 05:40:43;;;;;;;;;;;44.20;38.80;;;;;;5091755;28;19920;-69
2023/09/20 05:43:10;;;;;;;;;;;43.60;39.00;;;;;;5090234;28;20018;-69
2023/09/20 05:45:37;;;;;;;;;;;44.30;38.60;;;;;;5092132;28;19960;-71
2023/09/20 05:48:04;;;;;;;;;;;44.70;37.80;;;;;;5091242;28;19937;-70
2023/09/20 05:50:33;;;;;;;;;;;44.70;37.30;;;;;;5091871;28;19914;-68
2023/09/20 05:53:06;;;;;;;;;;;44.40;36.70;;;;;;5091588;28;19951;-69
2023/09/20 05:55:36;;;;;;;;;;;44.40;36.90;;;;;;5086194;28;19909;-70
2023/09/20 05:58:03;;;;;;;;;;;43.80;36.70;;;;;;5090399;28;20008;-73
2023/09/20 06:00:30;;;;;;;;;;;43.50;37.40;;;;;;5088059;28;19916;-71
2023/09/20 06:02:58;;;;;;;;;;;43.60;37.40;;;;;;5090945;28;19916;-72
2023/09/20 06:05:25;;;;;;;;;;;43.00;37.30;;;;;;5088707;28;20377;-72
2023/09/20 06:07:55;;;;;;;;;;;43.10;38.30;;;;;;5088544;28;19908;-69
2023/09/20 06:10:22;;;;;;;;;;;43.70;37.90;;;;;;5089531;28;19920;-69
2023/09/20 06:12:50;;;;;;;;;;;44.30;36.90;;;;;;5092064;28;19912;-71
2023/09/20 06:15:17;;;;;;;;;;;43.70;36.80;;;;;;5088945;28;19916;-68
2023/09/20 06:17:44;;;;;;;;;;;43.60;37.00;;;;;;5090614;28;19938;-68
2023/09/20 06:20:19;;;;;;;;;;;43.10;36.70;;;;;;5088453;28;19916;-69
2023/09/20 06:22:49;;;;;;;;;;;42.90;36.90;;;;;;5088658;28;19919;-70
2023/09/20 06:25:19;;;;;;;;;;;42.60;36.90;;;;;;5085641;28;19912;-68
2023/09/20 06:27:45;;;;;;;;;;;42.40;36.70;;;;;;5088860;28;19918;-74
2023/09/20 06:30:13;;;;;;;;;;;41.70;36.80;;;;;;5088925;28;19977;-72
2023/09/20 06:32:44;;;;;;;;;;;41.30;37.40;;;;;;5091194;28;19923;-79
2023/09/20 06:35:12;;;;;;;;;;;41.50;37.60;;;;;;5081125;28;19927;-69
2023/09/20 06:37:39;;;;;;;;;;;41.60;37.20;;;;;;5090042;28;19948;-73
2023/09/20 06:40:16;;;;;;;;;;;41.70;37.40;;;;;;5089899;28;19916;-69
2023/09/20 06:42:43;;;;;;;;;;;41.10;37.20;;;;;;5083751;28;19920;-70
2023/09/20 06:45:12;;;;;;;;;;;40.20;37.60;;;;;;5077221;28;20006;-70
2023/09/20 06:47:40;;;;;;;;;;;39.50;38.10;;;;;;5089727;28;20015;-71
2023/09/20 06:50:15;;;;;;;;;;;39.00;37.90;;;;;;5087836;28;19998;-67
2023/09/20 06:52:45;;;;;;;;;;;38.40;38.50;;;;;;5088503;28;19966;-67
2023/09/20 06:55:19;;;;;;;;;;;37.90;38.60;;;;;;5089296;28;19916;-71
2023/09/20 06:57:49;;;;;;;;;;;37.10;39.00;;;;;;5088926;28;19922;-74
2023/09/20 07:00:36;;;;;;;;;;;36.20;39.00;;;;;;5088930;28;19920;-71
2023/09/20 07:03:02;;;;;;;;;;;35.60;39.70;;;;;;5086411;28;19913;-69
2023/09/20 07:05:30;;;;;;;;;;;35.10;39.80;;;;;;5087168;28;19912;-70
2023/09/20 07:07:59;;;;;;;;;;;34.80;39.80;;;;;;5089318;28;20269;-70
2023/09/20 07:10:28;;;;;;;;;;;34.60;40.60;;;;;;5089692;28;20276;-70
2023/09/20 07:12:54;;;;;;;;;;;34.30;40.40;;;;;;5087813;28;19916;-70
2023/09/20 07:15:24;;;;;;;;;;;34.20;40.40;;;;;;5089078;28;19931;-68
2023/09/20 07:18:07;;;;;;;;;;;34.00;40.70;;;;;;5087035;28;19916;-73
2023/09/20 07:20:36;;;;;;;;;;;33.90;41.00;;;;;;5089978;28;19959;-68
2023/09/20 07:23:03;;;;;;;;;;;33.70;40.70;;;;;;5091965;28;19923;-68
2023/09/20 07:25:31;;;;;;;;;;;33.50;41.10;;;;;;5089518;28;20016;-70
2023/09/20 07:28:00;;;;;;;;;;;33.40;41.10;;;;;;5090160;28;19951;-72
2023/09/20 07:30:31;;;;;;;;;;;33.30;41.40;;;;;;5084495;28;19966;-72
2023/09/20 07:32:59;;;;;;;;;;;33.10;41.70;;;;;;5088534;28;19947;-72
2023/09/20 07:35:37;;;;;;;;;;;33.00;41.80;;;;;;5092692;28;19912;-72
2023/09/20 07:38:12;;;;;;;;;;;32.90;41.60;;;;;;5093373;28;20436;-73
2023/09/20 07:40:40;;;;;;;;;;;32.80;41.80;;;;;;5094022;28;20376;-70
2023/09/20 07:43:07;;;;;;;;;;;32.60;41.80;;;;;;5089196;28;19951;-68
2023/09/20 07:45:38;;;;;;;;;;;32.50;42.10;;;;;;5089404;28;19919;-68
2023/09/20 07:48:11;;;;;;;;;;;32.40;42.50;;;;;;5092835;28;19927;-68
2023/09/20 07:50:49;;;;;;;;;;;32.30;42.50;;;;;;5089025;28;19912;-70
2023/09/20 07:53:17;;;;;;;;;;;32.30;42.00;;;;;;5078174;28;19912;-67
2023/09/20 07:55:44;;;;;;;;;;;32.20;42.40;;;;;;5093405;28;19961;-67
2023/09/20 07:58:11;;;;;;;;;;;32.00;42.30;;;;;;5090658;28;19935;-68
2023/09/20 08:00:52;;;;;;;;;;;31.90;42.40;;;;;;5087154;28;19965;-68
2023/09/20 08:03:21;;;;;;;;;;;31.80;43.50;;;;;;5088577;28;20327;-67
2023/09/20 08:05:48;;;;;;;;;;;31.80;42.00;;;;;;5093428;28;19916;-68
2023/09/20 08:08:15;;;;;;;;;;;31.80;41.90;;;;;;5086564;28;19913;-67
2023/09/20 08:10:44;;;;;;;;;;;31.80;42.20;;;;;;5088624;28;19919;-68
2023/09/20 08:13:11;;;;;;;;;;;31.70;42.10;;;;;;5090232;28;19976;-67
2023/09/20 08:15:44;;;;;;;;;;;31.70;42.10;;;;;;5092674;28;19920;-69
2023/09/20 08:20:56;;;;;;;;;;;31.50;42.50;;;;;;5091235;28;19918;-68
2023/09/20 09:02:15;;;;;;;;;;;30.60;43.10;;;;;;5094209;28;19962;-67
2023/09/20 09:04:52;;;;;;;;;;;30.60;43.40;;;;;;5085331;28;19978;-69
2023/09/20 09:07:18;;;;;;;;;;;30.50;43.60;;;;;;5092354;28;19919;-69
2023/09/20 09:09:49;;;;;;;;;;;30.40;43.90;;;;;;5077208;28;20339;-71
2023/09/20 09:12:16;;;;;;;;;;;30.40;43.90;;;;;;5092247;28;20285;-67
2023/09/20 09:14:43;;;;;;;;;;;30.20;43.90;;;;;;5084689;28;19908;-69
2023/09/20 09:17:10;;;;;;;;;;;30.20;43.80;;;;;;5092069;28;20029;-68
2023/09/20 09:19:40;;;;;;;;;;;30.20;44.00;;;;;;5092956;28;19931;-70
2023/09/20 09:22:07;;;;;;;;;;;30.10;43.90;;;;;;5093467;28;19908;-67
2023/09/20 09:24:47;;;;;;;;;;;30.20;43.90;;;;;;5087140;28;19912;-70
2023/09/20 09:27:15;;;;;;;;;;;30.20;44.20;;;;;;5091081;28;20322;-66
2023/09/20 09:29:42;;;;;;;;;;;30.10;43.90;;;;;;5088050;28;19919;-70
2023/09/20 09:32:09;;;;;;;;;;;30.10;44.00;;;;;;5071810;28;19908;-67
2023/09/20 09:34:37;;;;;;;;;;;30.00;44.40;;;;;;5082990;28;19957;-69
2023/09/20 09:37:04;;;;;;;;;;;29.90;44.70;;;;;;5090862;28;19915;-68
2023/09/20 09:39:32;;;;;;;;;;;29.80;44.40;;;;;;5092231;28;19983;-67
2023/09/20 09:42:00;;;;;;;;;;;29.70;44.50;;;;;;5092188;28;19908;-67
2023/09/20 09:44:27;;;;;;;;;;;29.60;44.70;;;;;;5087276;28;19912;-71
2023/09/20 09:46:56;;;;;;;;;;;29.50;45.20;;;;;;5092768;28;19908;-69
2023/09/20 09:49:24;;;;;;;;;;;29.40;45.60;;;;;;5092594;28;19989;-67
2023/09/20 09:51:52;;;;;;;;;;;29.30;46.40;;;;;;5092930;28;19909;-67
2023/09/20 09:54:20;;;;;;;;;;;29.20;46.70;;;;;;5086598;28;19912;-67
2023/09/20 09:56:47;;;;;;;;;;;29.00;47.20;;;;;;5092323;28;19982;-67
2023/09/20 09:59:13;;;;;;;;;;;28.90;47.20;;;;;;5091077;28;19924;-70
2023/09/20 10:01:41;;;;;;;;;;;28.80;48.10;;;;;;5092168;28;19969;-69
2023/09/20 10:04:10;;;;;;;;;;;28.60;48.50;;;;;;5085636;28;19914;-67
2023/09/20 10:06:44;;;;;;;;;;;28.40;48.90;;;;;;5092332;28;20315;-70
2023/09/20 10:09:11;;;;;;;;;;;28.20;49.80;;;;;;5092426;28;19916;-69
2023/09/20 10:11:41;;;;;;;;;;;28.10;49.90;;;;;;5072577;28;19928;-68
2023/09/20 10:14:10;;;;;;;;;;;28.00;50.50;;;;;;5082081;28;19919;-67
2023/09/20 10:16:42;;;;;;;;;;;27.80;50.80;;;;;;5076072;28;19908;-67
2023/09/20 10:19:12;;;;;;;;;;;27.70;51.30;;;;;;5077738;28;20003;-69
2023/09/20 10:21:40;;;;;;;;;;;27.60;51.90;;;;;;5092006;28;19915;-72
2023/09/20 10:24:14;;;;;;;;;;;27.50;51.90;;;;;;5088648;28;19916;-74
2023/09/20 10:26:41;;;;;;;;;;;27.40;52.20;;;;;;5091645;28;20350;-67
2023/09/20 10:29:24;;;;;;;;;;;27.30;52.20;;;;;;5088789;28;19916;-68
2023/09/20 10:31:53;;;;;;;;;;;27.20;52.50;;;;;;5086893;28;19939;-68
2023/09/20 10:34:21;;;;;;;;;;;27.10;52.80;;;;;;5079029;28;19921;-71
2023/09/20 10:36:51;;;;;;;;;;;27.00;53.00;;;;;;5089345;28;19950;-67
2023/09/20 10:39:18;;;;;;;;;;;26.90;53.20;;;;;;5091118;28;20320;-68
2023/09/20 10:41:46;;;;;;;;;;;26.80;53.50;;;;;;5090010;28;20003;-68
2023/09/20 10:44:28;;;;;;;;;;;26.80;53.60;;;;;;5085200;28;19951;-67
2023/09/20 10:47:01;;;;;;;;;;;26.70;53.60;;;;;;5081897;28;19912;-68
2023/09/20 10:49:45;;;;;;;;;;;26.60;53.80;;;;;;5075031;28;19920;-69
2023/09/20 10:52:12;;;;;;;;;;;26.50;54.10;;;;;;5072049;28;19919;-67
2023/09/20 10:54:39;;;;;;;;;;;26.50;54.40;;;;;;5087128;28;19908;-68
2023/09/20 10:57:10;;;;;;;;;;;26.40;54.30;;;;;;5073070;28;19979;-68
2023/09/20 10:59:37;;;;;;;;;;;26.40;54.60;;;;;;5080533;28;19925;-66
2023/09/20 11:02:08;;;;;;;;;;;26.30;54.60;;;;;;5072379;28;20401;-68
2023/09/20 11:04:36;;;;;;;;;;;26.30;54.80;;;;;;5087313;28;19908;-67
2023/09/20 11:07:03;;;;;;;;;;;26.20;55.00;;;;;;5087332;28;20327;-68
2023/09/20 11:09:39;;;;;;;;;;;26.20;54.80;;;;;;5084403;28;20356;-65
2023/09/20 11:12:09;;;;;;;;;;;26.00;55.20;;;;;;5092060;28;19915;-68
2023/09/20 11:14:37;;;;;;;;;;;26.00;55.10;;;;;;5092007;28;19908;-67
2023/09/20 11:17:05;;;;;;;;;;;26.00;55.10;;;;;;5079488;28;19916;-68
2023/09/20 11:19:35;;;;;;;;;;;26.00;55.10;;;;;;5070991;28;19917;-68
2023/09/20 11:22:03;;;;;;;;;;;26.00;54.90;;;;;;5078706;28;20380;-66
2023/09/20 11:24:29;;;;;;;;;;;26.00;55.10;;;;;;5081140;28;19966;-67
2023/09/20 11:26:57;;;;;;;;;;;26.00;54.10;;;;;;5087600;28;19959;-68
2023/09/20 11:29:24;;;;;;;;;;;26.10;54.50;;;;;;5081568;28;20019;-73
2023/09/20 11:31:55;;;;;;;;;;;26.10;54.00;;;;;;5090976;28;19995;-70
2023/09/20 11:34:21;;;;;;;;;;;26.20;53.20;;;;;;5092398;28;20005;-71
2023/09/20 11:36:48;;;;;;;;;;;26.30;53.30;;;;;;5082772;28;19912;-72
2023/09/20 11:39:17;;;;;;;;;;;26.50;52.90;;;;;;5091927;28;20007;-72
2023/09/20 11:41:45;;;;;;;;;;;26.50;52.60;;;;;;5079659;28;19912;-71
2023/09/20 11:44:12;;;;;;;;;;;26.60;52.90;;;;;;5072058;28;19955;-67
2023/09/20 11:46:39;;;;;;;;;;;26.60;61.80;;;;;;5085345;28;19920;-70
2023/09/20 11:49:08;;;;;;;;;;;26.40;69.10;;;;;;5082443;28;19927;-72
2023/09/20 11:51:36;;;;;;;;;;;25.90;73.80;;;;;;5086771;28;20277;-74
2023/09/20 11:54:06;;;;;;;;;;;25.40;77.10;;;;;;5076715;28;20353;-76
2023/09/20 11:56:34;;;;;;;;;;;24.90;79.80;;;;;;5070965;28;20281;-71
2023/09/20 11:59:03;;;;;;;;;;;24.50;82.50;;;;;;5071607;28;19927;-68
2023/09/20 12:01:29;;;;;;;;;;;24.00;85.20;;;;;;5087288;28;19987;-69
2023/09/20 12:03:56;;;;;;;;;;;23.60;87.80;;;;;;5075850;28;19908;-73
2023/09/20 12:06:24;;;;;;;;;;;23.40;89.90;;;;;;5095725;28;19912;-67
2023/09/20 12:08:53;;;;;;;;;;;23.10;91.30;;;;;;5095861;28;20276;-69
2023/09/20 12:11:20;;;;;;;;;;;23.00;92.30;;;;;;5079554;28;19920;-67
2023/09/20 12:13:47;;;;;;;;;;;22.90;93.50;;;;;;5074650;28;19948;-70
2023/09/20 12:16:14;;;;;;;;;;;22.70;95.00;;;;;;5087473;28;19912;-67
2023/09/20 12:18:42;;;;;;;;;;;22.60;96.10;;;;;;5095178;28;19916;-67
2023/09/20 12:21:08;;;;;;;;;;;22.40;97.80;;;;;;5075720;28;19913;-66
2023/09/20 12:23:35;;;;;;;;;;;22.30;98.80;;;;;;5086138;28;19957;-65
2023/09/20 12:26:06;;;;;;;;;;;22.30;99.60;;;;;;5094887;28;19912;-66
2023/09/20 12:28:33;;;;;;;;;;;22.00;99.90;;;;;;5095520;28;19909;-66
2023/09/20 12:30:59;;;;;;;;;;;21.80;99.90;;;;;;5080366;28;19916;-66
2023/09/20 12:33:26;;;;;;;;;;;21.70;99.90;;;;;;5078115;28;19960;-67
2023/09/20 12:35:53;;;;;;;;;;;21.70;99.90;;;;;;5091547;28;20296;-67
2023/09/20 12:38:20;;;;;;;;;;;21.50;99.90;;;;;;5079638;28;19956;-68
2023/09/20 12:40:47;;;;;;;;;;;21.40;99.90;;;;;;5074998;28;20353;-67
2023/09/20 12:43:15;;;;;;;;;;;21.30;99.90;;;;;;5074836;28;19913;-71
2023/09/20 12:45:46;;;;;;;;;;;21.20;99.90;;;;;;5073626;28;20262;-67
2023/09/20 12:48:13;;;;;;;;;;;21.10;99.90;;;;;;5074433;28;20015;-67
2023/09/20 12:50:41;;;;;;;;;;;21.10;99.90;;;;;;5074877;28;19912;-67
2023/09/20 12:53:09;;;;;;;;;;;20.90;99.90;;;;;;5074623;28;19948;-68
2023/09/20 12:55:37;;;;;;;;;;;20.80;99.90;;;;;;5077907;28;20015;-66
2023/09/20 12:58:07;;;;;;;;;;;20.80;99.90;;;;;;5075148;28;19912;-66
2023/09/20 13:00:34;;;;;;;;;;;20.70;99.90;;;;;;5074591;28;19948;-67
2023/09/20 13:03:07;;;;;;;;;;;20.60;99.90;;;;;;5074655;28;20516;-68
2023/09/20 13:05:33;;;;;;;;;;;20.60;99.90;;;;;;5074694;28;19927;-67
2023/09/20 13:08:00;;;;;;;;;;;20.60;99.90;;;;;;5074708;28;19916;-66
2023/09/20 13:10:27;;;;;;;;;;;20.60;99.90;;;;;;5075529;28;19973;-67
2023/09/20 13:12:54;;;;;;;;;;;20.60;99.90;;;;;;5083276;28;20368;-67
2023/09/20 13:15:21;;;;;;;;;;;20.50;99.90;;;;;;5094159;28;19973;-67
2023/09/20 13:17:56;;;;;;;;;;;20.50;99.90;;;;;;5086770;28;19912;-68
2023/09/20 13:20:24;;;;;;;;;;;20.40;99.90;;;;;;5093927;28;19920;-68
2023/09/20 13:22:53;;;;;;;;;;;20.40;99.90;;;;;;5094022;28;19946;-68
2023/09/20 13:25:20;;;;;;;;;;;20.30;99.90;;;;;;5080095;28;19924;-67
2023/09/20 13:27:53;;;;;;;;;;;20.30;99.90;;;;;;5077546;28;19908;-67
2023/09/20 13:30:20;;;;;;;;;;;20.20;99.90;;;;;;5088357;28;19922;-68
2023/09/20 13:32:46;;;;;;;;;;;20.30;99.90;;;;;;5090830;28;20007;-66
2023/09/20 13:35:15;;;;;;;;;;;20.20;99.90;;;;;;5091559;28;20357;-68
2023/09/20 13:37:45;;;;;;;;;;;20.10;99.90;;;;;;5094013;28;20002;-71
2023/09/20 13:40:17;;;;;;;;;;;20.10;99.90;;;;;;5093870;28;19916;-67
2023/09/20 13:42:45;;;;;;;;;;;20.10;99.90;;;;;;5085283;28;19912;-66
2023/09/20 13:45:13;;;;;;;;;;;20.10;99.90;;;;;;5075917;28;19956;-66
2023/09/20 13:47:42;;;;;;;;;;;20.00;99.90;;;;;;5073483;28;19955;-69
2023/09/20 13:50:09;;;;;;;;;;;20.00;99.90;;;;;;5075532;28;19912;-68
2023/09/20 13:52:36;;;;;;;;;;;20.00;99.90;;;;;;5092406;28;19916;-67
2023/09/20 13:55:06;;;;;;;;;;;20.00;99.90;;;;;;5093731;28;20345;-69
2023/09/20 13:57:38;;;;;;;;;;;19.90;99.90;;;;;;5087349;28;19919;-67
2023/09/20 14:00:14;;;;;;;;;;;19.90;99.90;;;;;;5072653;28;19928;-68
2023/09/20 14:02:41;;;;;;;;;;;19.90;99.90;;;;;;5073407;28;19995;-65
2023/09/20 14:05:14;;;;;;;;;;;19.90;99.90;;;;;;5089578;28;20280;-69
2023/09/20 14:07:45;;;;;;;;;;;19.90;99.90;;;;;;5075759;28;19917;-67
2023/09/20 14:10:15;;;;;;;;;;;19.90;99.90;;;;;;5073279;28;20350;-68
2023/09/20 14:12:43;;;;;;;;;;;19.90;99.90;;;;;;5079608;28;19912;-68
2023/09/20 14:15:11;;;;;;;;;;;19.90;99.90;;;;;;5092975;28;20375;-66
2023/09/20 14:17:38;;;;;;;;;;;19.90;99.90;;;;;;5093828;28;19912;-69
2023/09/20 14:20:15;;;;;;;;;;;19.90;99.90;;;;;;5093252;28;20338;-66
2023/09/20 14:22:42;;;;;;;;;;;19.80;99.90;;;;;;5093197;28;19915;-68
2023/09/20 14:25:11;;;;;;;;;;;19.80;99.90;;;;;;5086326;28;19912;-66
2023/09/20 14:27:38;;;;;;;;;;;19.70;99.90;;;;;;5087123;28;19939;-66
2023/09/20 14:30:08;;;;;;;;;;;19.70;99.90;;;;;;5072439;28;19982;-66
2023/09/20 14:32:35;;;;;;;;;;;19.80;99.90;;;;;;5073067;28;20338;-68
2023/09/20 14:35:02;;;;;;;;;;;19.70;99.90;;;;;;5071806;28;20361;-67
2023/09/20 14:37:28;;;;;;;;;;;19.70;99.90;;;;;;5072884;28;19915;-65
2023/09/20 14:39:56;;;;;;;;;;;19.70;99.90;;;;;;5072415;28;19917;-65
2023/09/20 14:42:26;;;;;;;;;;;19.70;99.90;;;;;;5075936;28;20355;-67
2023/09/20 14:44:53;;;;;;;;;;;19.70;99.90;;;;;;5091460;28;19912;-66
2023/09/20 14:47:22;;;;;;;;;;;19.70;99.90;;;;;;5092547;28;19918;-67
2023/09/20 14:49:49;;;;;;;;;;;19.70;99.90;;;;;;5092779;28;19912;-67
2023/09/20 14:52:16;;;;;;;;;;;19.60;99.90;;;;;;5092904;28;19977;-67
2023/09/20 14:54:43;;;;;;;;;;;19.60;99.90;;;;;;5083453;28;19920;-67
2023/09/20 14:57:10;;;;;;;;;;;19.60;99.90;;;;;;5073808;28;19969;-67
2023/09/20 14:59:37;;;;;;;;;;;19.60;99.90;;;;;;5092550;28;19916;-66
2023/09/20 15:02:06;;;;;;;;;;;19.70;99.90;;;;;;5093060;28;19916;-67
2023/09/20 15:04:32;;;;;;;;;;;19.60;99.90;;;;;;5092803;28;20280;-67
2023/09/20 15:06:59;;;;;;;;;;;19.60;99.90;;;;;;5092932;28;19912;-67